EJA836 KLAS-KSAN
Flight info
| Callsign | EJA836 |
|---|---|
| Flight time | 0h 44m |
| Altitude | 29000 |
| Route | KLAS RADYR2 LVELL LUCKI1 KSAN |
| Aircraft | C700/M-VGDW/C |
Departure
| Time | 2026-05-04 23:01 |
|---|---|
| Airport | Harry Reid International Airport (KLAS) |
Arrival
| Time | 2026-05-04 23:46 |
|---|---|
| Airport | San Diego International Airport (KSAN) |
| Time | Latitude | Longitude | Altitude | Speed | Heading |
|---|---|---|---|---|---|
| 2026-05-04 22:46 | 36.09926 | -115.16046 | 2117 ft | 0 kts | 298° |
| 2026-05-04 22:55 | 36.09918 | -115.16062 | 2115 ft | 6 kts | 205° |
| 2026-05-04 22:56 | 36.09869 | -115.16057 | 2114 ft | 9 kts | 193° |
| 2026-05-04 22:56 | 36.09794 | -115.16060 | 2114 ft | 12 kts | 144° |
| 2026-05-04 22:56 | 36.09801 | -115.15979 | 2117 ft | 12 kts | 31° |
| 2026-05-04 22:56 | 36.09878 | -115.15935 | 2120 ft | 13 kts | 24° |
| 2026-05-04 22:57 | 36.09954 | -115.15870 | 2116 ft | 14 kts | 63° |
| 2026-05-04 22:57 | 36.09987 | -115.15732 | 2117 ft | 19 kts | 93° |
| 2026-05-04 22:57 | 36.09919 | -115.15675 | 2117 ft | 6 kts | 200° |
| 2026-05-04 22:57 | 36.09918 | -115.15675 | 2117 ft | 0 kts | 202° |
| 2026-05-04 23:00 | 36.09913 | -115.15677 | 2118 ft | 7 kts | 204° |
| 2026-05-04 23:00 | 36.09605 | -115.15854 | 2115 ft | 98 kts | 204° |
| 2026-05-04 23:01 | 36.08728 | -115.16355 | 2316 ft | 168 kts | 205° |
| 2026-05-04 23:01 | 36.07621 | -115.16979 | 3396 ft | 183 kts | 202° |
| 2026-05-04 23:01 | 36.06366 | -115.17651 | 4403 ft | 222 kts | 202° |
| 2026-05-04 23:01 | 36.04723 | -115.18541 | 4411 ft | 275 kts | 202° |
| 2026-05-04 23:02 | 36.03052 | -115.19470 | 4386 ft | 251 kts | 203° |
| 2026-05-04 23:02 | 36.01525 | -115.20310 | 4396 ft | 229 kts | 202° |
| 2026-05-04 23:02 | 36.00120 | -115.21048 | 4393 ft | 211 kts | 199° |
| 2026-05-04 23:02 | 35.98777 | -115.21641 | 4415 ft | 199 kts | 198° |
| 2026-05-04 23:03 | 35.97588 | -115.22186 | 4891 ft | 157 kts | 199° |
| 2026-05-04 23:03 | 35.96543 | -115.22663 | 5834 ft | 171 kts | 198° |
| 2026-05-04 23:03 | 35.95323 | -115.23207 | 6850 ft | 202 kts | 199° |
| 2026-05-04 23:03 | 35.94009 | -115.23814 | 8361 ft | 204 kts | 199° |
| 2026-05-04 23:04 | 35.92571 | -115.24467 | 9623 ft | 231 kts | 198° |
| 2026-05-04 23:04 | 35.90971 | -115.25188 | 10713 ft | 258 kts | 198° |
| 2026-05-04 23:04 | 35.89220 | -115.25984 | 12022 ft | 273 kts | 199° |
| 2026-05-04 23:04 | 35.87461 | -115.26781 | 13981 ft | 275 kts | 202° |
| 2026-05-04 23:05 | 35.85656 | -115.27604 | 15485 ft | 279 kts | 203° |
| 2026-05-04 23:05 | 35.83820 | -115.28441 | 17020 ft | 283 kts | 204° |
| 2026-05-04 23:05 | 35.81953 | -115.29285 | 18448 ft | 288 kts | 204° |
| 2026-05-04 23:05 | 35.80053 | -115.30144 | 19688 ft | 294 kts | 205° |
| 2026-05-04 23:06 | 35.78116 | -115.31021 | 20905 ft | 299 kts | 205° |
| 2026-05-04 23:06 | 35.76149 | -115.31911 | 22092 ft | 305 kts | 206° |
| 2026-05-04 23:06 | 35.74136 | -115.32821 | 23275 ft | 310 kts | 206° |
| 2026-05-04 23:06 | 35.72103 | -115.33736 | 24352 ft | 311 kts | 207° |
| 2026-05-04 23:07 | 35.70086 | -115.34642 | 25546 ft | 308 kts | 207° |
| 2026-05-04 23:07 | 35.68077 | -115.35553 | 26630 ft | 308 kts | 208° |
| 2026-05-04 23:07 | 35.66075 | -115.36456 | 27713 ft | 308 kts | 208° |
| 2026-05-04 23:07 | 35.64002 | -115.37370 | 27837 ft | 336 kts | 206° |
| 2026-05-04 23:08 | 35.61624 | -115.38092 | 27844 ft | 369 kts | 200° |
| 2026-05-04 23:08 | 35.58963 | -115.38497 | 27851 ft | 402 kts | 193° |
| 2026-05-04 23:08 | 35.56054 | -115.38476 | 27863 ft | 434 kts | 186° |
| 2026-05-04 23:08 | 35.52966 | -115.38230 | 27861 ft | 446 kts | 186° |
| 2026-05-04 23:09 | 35.49965 | -115.37978 | 27856 ft | 417 kts | 186° |
| 2026-05-04 23:09 | 35.47128 | -115.37776 | 27848 ft | 406 kts | 187° |
| 2026-05-04 23:09 | 35.44247 | -115.37625 | 27856 ft | 426 kts | 187° |
| 2026-05-04 23:09 | 35.41216 | -115.37431 | 27870 ft | 444 kts | 186° |
| 2026-05-04 23:10 | 35.38121 | -115.37173 | 27860 ft | 445 kts | 185° |
| 2026-05-04 23:10 | 35.35060 | -115.36924 | 27859 ft | 437 kts | 186° |
| 2026-05-04 23:10 | 35.32081 | -115.36729 | 27855 ft | 432 kts | 187° |
| 2026-05-04 23:10 | 35.29082 | -115.36543 | 27860 ft | 433 kts | 186° |
| 2026-05-04 23:11 | 35.26074 | -115.36329 | 27871 ft | 435 kts | 186° |
| 2026-05-04 23:11 | 35.23039 | -115.36095 | 27861 ft | 437 kts | 186° |
| 2026-05-04 23:11 | 35.20002 | -115.35884 | 27868 ft | 436 kts | 186° |
| 2026-05-04 23:11 | 35.16977 | -115.35682 | 27861 ft | 435 kts | 187° |
| 2026-05-04 23:12 | 35.13962 | -115.35467 | 27856 ft | 432 kts | 186° |
| 2026-05-04 23:12 | 35.10969 | -115.35231 | 27861 ft | 430 kts | 186° |
| 2026-05-04 23:12 | 35.07983 | -115.35024 | 27866 ft | 430 kts | 187° |
| 2026-05-04 23:12 | 35.04996 | -115.34848 | 27865 ft | 431 kts | 187° |
| 2026-05-04 23:13 | 35.01988 | -115.34657 | 27866 ft | 434 kts | 186° |
| 2026-05-04 23:13 | 34.98972 | -115.34426 | 27865 ft | 434 kts | 186° |
| 2026-05-04 23:13 | 34.95970 | -115.34196 | 27865 ft | 432 kts | 186° |
| 2026-05-04 23:13 | 34.92972 | -115.33995 | 27857 ft | 430 kts | 187° |
| 2026-05-04 23:14 | 34.90035 | -115.33802 | 27856 ft | 428 kts | 187° |
| 2026-05-04 23:14 | 34.87064 | -115.33594 | 27855 ft | 427 kts | 187° |
| 2026-05-04 23:14 | 34.84095 | -115.33389 | 27848 ft | 426 kts | 187° |
| 2026-05-04 23:14 | 34.81158 | -115.33424 | 27850 ft | 419 kts | 193° |
| 2026-05-04 23:15 | 34.78280 | -115.33788 | 27850 ft | 414 kts | 197° |
| 2026-05-04 23:15 | 34.75476 | -115.34462 | 27846 ft | 408 kts | 201° |
| 2026-05-04 23:15 | 34.72766 | -115.35429 | 27848 ft | 404 kts | 206° |
| 2026-05-04 23:15 | 34.70130 | -115.36599 | 27846 ft | 403 kts | 207° |
| 2026-05-04 23:16 | 34.67491 | -115.37749 | 27843 ft | 403 kts | 206° |
| 2026-05-04 23:16 | 34.64855 | -115.38885 | 27836 ft | 402 kts | 206° |
| 2026-05-04 23:16 | 34.62261 | -115.40020 | 27839 ft | 401 kts | 207° |
| 2026-05-04 23:16 | 34.59641 | -115.41175 | 27838 ft | 400 kts | 206° |
| 2026-05-04 23:17 | 34.57023 | -115.42319 | 27840 ft | 400 kts | 206° |
| 2026-05-04 23:17 | 34.54402 | -115.43460 | 27837 ft | 401 kts | 206° |
| 2026-05-04 23:17 | 34.51770 | -115.44607 | 27838 ft | 402 kts | 206° |
| 2026-05-04 23:17 | 34.49137 | -115.45756 | 27839 ft | 403 kts | 206° |
| 2026-05-04 23:18 | 34.46493 | -115.46908 | 27839 ft | 404 kts | 206° |
| 2026-05-04 23:18 | 34.43854 | -115.48056 | 27841 ft | 403 kts | 206° |
| 2026-05-04 23:18 | 34.41207 | -115.49207 | 27839 ft | 404 kts | 206° |
| 2026-05-04 23:18 | 34.38564 | -115.50357 | 27839 ft | 404 kts | 206° |
| 2026-05-04 23:19 | 34.35949 | -115.51492 | 27839 ft | 404 kts | 206° |
| 2026-05-04 23:19 | 34.33350 | -115.52737 | 27842 ft | 400 kts | 210° |
| 2026-05-04 23:19 | 34.30873 | -115.54248 | 27844 ft | 397 kts | 213° |
| 2026-05-04 23:19 | 34.28510 | -115.55969 | 27843 ft | 396 kts | 216° |
| 2026-05-04 23:20 | 34.26164 | -115.57711 | 27848 ft | 396 kts | 216° |
| 2026-05-04 23:20 | 34.23810 | -115.59437 | 27856 ft | 397 kts | 215° |
| 2026-05-04 23:20 | 34.21403 | -115.61100 | 27854 ft | 399 kts | 212° |
| 2026-05-04 23:20 | 34.18876 | -115.62504 | 27852 ft | 402 kts | 208° |
| 2026-05-04 23:21 | 34.16268 | -115.63722 | 27851 ft | 402 kts | 206° |
| 2026-05-04 23:21 | 34.13665 | -115.64953 | 27873 ft | 401 kts | 207° |
| 2026-05-04 23:21 | 34.11088 | -115.66186 | 27881 ft | 396 kts | 207° |
| 2026-05-04 23:21 | 34.08530 | -115.67396 | 27878 ft | 395 kts | 207° |
| 2026-05-04 23:22 | 34.06831 | -115.68193 | 27876 ft | 396 kts | 207° |
| 2026-05-04 23:22 | 34.03425 | -115.69795 | 27873 ft | 397 kts | 207° |
| 2026-05-04 23:22 | 34.00852 | -115.71010 | 27887 ft | 397 kts | 207° |
| 2026-05-04 23:22 | 33.98284 | -115.72222 | 27888 ft | 398 kts | 207° |
| 2026-05-04 23:23 | 33.95809 | -115.73386 | 27887 ft | 398 kts | 207° |
| 2026-05-04 23:23 | 33.93229 | -115.74598 | 27887 ft | 399 kts | 207° |
| 2026-05-04 23:23 | 33.91480 | -115.75419 | 27868 ft | 398 kts | 207° |
| 2026-05-04 23:23 | 33.88089 | -115.77078 | 27886 ft | 397 kts | 208° |
| 2026-05-04 23:24 | 33.86403 | -115.77927 | 27884 ft | 397 kts | 208° |
| 2026-05-04 23:24 | 33.83850 | -115.79191 | 27887 ft | 397 kts | 207° |
| 2026-05-04 23:24 | 33.81292 | -115.80435 | 27890 ft | 397 kts | 207° |
| 2026-05-04 23:24 | 33.78720 | -115.81684 | 27598 ft | 402 kts | 207° |
| 2026-05-04 23:25 | 33.76123 | -115.82956 | 27216 ft | 403 kts | 207° |
| 2026-05-04 23:25 | 33.73515 | -115.84189 | 26839 ft | 404 kts | 206° |
| 2026-05-04 23:25 | 33.70885 | -115.85391 | 26470 ft | 405 kts | 206° |
| 2026-05-04 23:25 | 33.68253 | -115.86612 | 26102 ft | 406 kts | 206° |
| 2026-05-04 23:26 | 33.65620 | -115.87857 | 25740 ft | 407 kts | 206° |
| 2026-05-04 23:26 | 33.62986 | -115.89097 | 25356 ft | 405 kts | 206° |
| 2026-05-04 23:26 | 33.60368 | -115.90312 | 25001 ft | 403 kts | 206° |
| 2026-05-04 23:26 | 33.57820 | -115.91571 | 24893 ft | 397 kts | 209° |
| 2026-05-04 23:27 | 33.55381 | -115.93122 | 24897 ft | 397 kts | 214° |
| 2026-05-04 23:27 | 33.53096 | -115.94933 | 24895 ft | 391 kts | 218° |
| 2026-05-04 23:27 | 33.51005 | -115.96960 | 24891 ft | 382 kts | 224° |
| 2026-05-04 23:27 | 33.49120 | -115.99169 | 24888 ft | 378 kts | 228° |
| 2026-05-04 23:28 | 33.47416 | -116.01576 | 24897 ft | 380 kts | 232° |
| 2026-05-04 23:28 | 33.45864 | -116.04174 | 24577 ft | 388 kts | 235° |
| 2026-05-04 23:28 | 33.44332 | -116.06832 | 24112 ft | 385 kts | 235° |
| 2026-05-04 23:28 | 33.42812 | -116.09443 | 23674 ft | 381 kts | 235° |
| 2026-05-04 23:29 | 33.41298 | -116.12039 | 23181 ft | 379 kts | 235° |
| 2026-05-04 23:29 | 33.39793 | -116.14626 | 22650 ft | 378 kts | 235° |
| 2026-05-04 23:29 | 33.38292 | -116.17211 | 22134 ft | 379 kts | 236° |
| 2026-05-04 23:29 | 33.36805 | -116.19758 | 21631 ft | 379 kts | 234° |
| 2026-05-04 23:30 | 33.35114 | -116.22172 | 21126 ft | 379 kts | 228° |
| 2026-05-04 23:30 | 33.33207 | -116.24353 | 20634 ft | 379 kts | 223° |
| 2026-05-04 23:30 | 33.31111 | -116.26261 | 20107 ft | 380 kts | 217° |
| 2026-05-04 23:30 | 33.28821 | -116.27893 | 19503 ft | 386 kts | 211° |
| 2026-05-04 23:31 | 33.26398 | -116.29305 | 18921 ft | 389 kts | 209° |
| 2026-05-04 23:31 | 33.23969 | -116.30723 | 18348 ft | 388 kts | 210° |
| 2026-05-04 23:31 | 33.21555 | -116.32151 | 17709 ft | 386 kts | 210° |
| 2026-05-04 23:31 | 33.19154 | -116.33561 | 17058 ft | 382 kts | 209° |
| 2026-05-04 23:32 | 33.16781 | -116.34944 | 16423 ft | 378 kts | 209° |
| 2026-05-04 23:32 | 33.14441 | -116.36309 | 15796 ft | 369 kts | 209° |
| 2026-05-04 23:32 | 33.12215 | -116.37608 | 15196 ft | 350 kts | 209° |
| 2026-05-04 23:32 | 33.10088 | -116.38839 | 14623 ft | 330 kts | 209° |
| 2026-05-04 23:33 | 33.08085 | -116.40036 | 14033 ft | 315 kts | 210° |
| 2026-05-04 23:33 | 33.06152 | -116.41163 | 13406 ft | 305 kts | 209° |
| 2026-05-04 23:33 | 33.04273 | -116.42243 | 12905 ft | 292 kts | 209° |
| 2026-05-04 23:33 | 33.02509 | -116.43268 | 12900 ft | 278 kts | 209° |
| 2026-05-04 23:34 | 33.00771 | -116.44350 | 12891 ft | 287 kts | 215° |
| 2026-05-04 23:34 | 32.99162 | -116.45811 | 12910 ft | 294 kts | 223° |
| 2026-05-04 23:34 | 32.97600 | -116.47424 | 12909 ft | 299 kts | 222° |
| 2026-05-04 23:34 | 32.96021 | -116.49008 | 12919 ft | 295 kts | 221° |
| 2026-05-04 23:35 | 32.94464 | -116.50547 | 12919 ft | 294 kts | 222° |
| 2026-05-04 23:35 | 32.92915 | -116.52126 | 12921 ft | 292 kts | 222° |
| 2026-05-04 23:35 | 32.91382 | -116.53686 | 12924 ft | 289 kts | 222° |
| 2026-05-04 23:35 | 32.89840 | -116.55237 | 12922 ft | 293 kts | 222° |
| 2026-05-04 23:36 | 32.88256 | -116.56833 | 12464 ft | 304 kts | 222° |
| 2026-05-04 23:36 | 32.86639 | -116.58459 | 11849 ft | 303 kts | 221° |
| 2026-05-04 23:36 | 32.85053 | -116.60051 | 11234 ft | 294 kts | 222° |
| 2026-05-04 23:36 | 32.83510 | -116.61601 | 10632 ft | 287 kts | 222° |
| 2026-05-04 23:37 | 32.82002 | -116.63132 | 9988 ft | 285 kts | 222° |
| 2026-05-04 23:37 | 32.80488 | -116.64657 | 9215 ft | 285 kts | 222° |
| 2026-05-04 23:37 | 32.78965 | -116.66174 | 8451 ft | 287 kts | 223° |
| 2026-05-04 23:37 | 32.77572 | -116.67805 | 7971 ft | 278 kts | 233° |
| 2026-05-04 23:38 | 32.76509 | -116.69642 | 7928 ft | 268 kts | 241° |
| 2026-05-04 23:38 | 32.75575 | -116.71635 | 7556 ft | 284 kts | 243° |
| 2026-05-04 23:38 | 32.74596 | -116.73706 | 7198 ft | 289 kts | 242° |
| 2026-05-04 23:38 | 32.73610 | -116.75773 | 6796 ft | 286 kts | 243° |
| 2026-05-04 23:39 | 32.72636 | -116.77825 | 6303 ft | 284 kts | 244° |
| 2026-05-04 23:39 | 32.71728 | -116.79725 | 5968 ft | 225 kts | 243° |
| 2026-05-04 23:39 | 32.70952 | -116.81362 | 5975 ft | 232 kts | 245° |
| 2026-05-04 23:39 | 32.70322 | -116.83108 | 5679 ft | 231 kts | 253° |
| 2026-05-04 23:40 | 32.69789 | -116.84901 | 5167 ft | 226 kts | 253° |
| 2026-05-04 23:40 | 32.69268 | -116.86614 | 4976 ft | 217 kts | 255° |
| 2026-05-04 23:40 | 32.69026 | -116.88332 | 4968 ft | 209 kts | 269° |
| 2026-05-04 23:40 | 32.69117 | -116.90049 | 4972 ft | 210 kts | 280° |
| 2026-05-04 23:41 | 32.69382 | -116.91770 | 4990 ft | 214 kts | 280° |
| 2026-05-04 23:41 | 32.69622 | -116.93515 | 4976 ft | 212 kts | 281° |
| 2026-05-04 23:41 | 32.69866 | -116.95223 | 4981 ft | 209 kts | 281° |
| 2026-05-04 23:41 | 32.70112 | -116.96903 | 4970 ft | 207 kts | 281° |
| 2026-05-04 23:42 | 32.70229 | -116.98602 | 4967 ft | 208 kts | 271° |
| 2026-05-04 23:42 | 32.70214 | -117.00342 | 4911 ft | 217 kts | 271° |
| 2026-05-04 23:42 | 32.70243 | -117.02204 | 4400 ft | 229 kts | 273° |
| 2026-05-04 23:42 | 32.70304 | -117.04110 | 3907 ft | 233 kts | 273° |
| 2026-05-04 23:43 | 32.70354 | -117.05888 | 3378 ft | 194 kts | 272° |
| 2026-05-04 23:43 | 32.70562 | -117.07443 | 3060 ft | 164 kts | 287° |
| 2026-05-04 23:43 | 32.70870 | -117.08605 | 2886 ft | 150 kts | 284° |
| 2026-05-04 23:43 | 32.71144 | -117.09797 | 2680 ft | 147 kts | 284° |
| 2026-05-04 23:44 | 32.71393 | -117.10907 | 2231 ft | 136 kts | 283° |
| 2026-05-04 23:44 | 32.71627 | -117.11995 | 1761 ft | 136 kts | 283° |
| 2026-05-04 23:44 | 32.71904 | -117.13046 | 1393 ft | 132 kts | 288° |
| 2026-05-04 23:44 | 32.72176 | -117.14112 | 1068 ft | 131 kts | 284° |
| 2026-05-04 23:45 | 32.72416 | -117.15126 | 722 ft | 129 kts | 284° |
| 2026-05-04 23:45 | 32.72662 | -117.16066 | 472 ft | 114 kts | 282° |
| 2026-05-04 23:45 | 32.72875 | -117.17036 | 311 ft | 122 kts | 282° |
| 2026-05-04 23:45 | 32.73098 | -117.17918 | 41 ft | 103 kts | 287° |
| 2026-05-04 23:46 | 32.73256 | -117.18554 | 20 ft | 46 kts | 286° |
| 2026-05-04 23:46 | 32.73330 | -117.18797 | 18 ft | 18 kts | 310° |
| 2026-05-04 23:46 | 32.73418 | -117.18779 | 18 ft | 14 kts | 71° |
| 2026-05-04 23:46 | 32.73388 | -117.18617 | 17 ft | 22 kts | 107° |
| 2026-05-04 23:47 | 32.73344 | -117.18444 | 21 ft | 20 kts | 105° |
| 2026-05-04 23:47 | 32.73301 | -117.18266 | 19 ft | 25 kts | 107° |
| 2026-05-04 23:47 | 32.73256 | -117.18082 | 19 ft | 8 kts | 106° |
| 2026-05-04 23:47 | 32.73249 | -117.18003 | 17 ft | 11 kts | 70° |
| 2026-05-04 23:48 | 32.73291 | -117.17972 | 22 ft | 9 kts | 14° |
| 2026-05-04 23:48 | 32.73369 | -117.17945 | 22 ft | 14 kts | 16° |
| 2026-05-04 23:48 | 32.73441 | -117.17918 | 23 ft | 8 kts | 43° |
| 2026-05-04 23:48 | 32.73445 | -117.17913 | 22 ft | 0 kts | 44° |